Etusivu
METAR-TAF:

METAR-TAF

Lentoasemat :

Jackson, Mississippi, Yhdysvallat

Leveyspiiri: 32-19-11N, Pituuspiiri: 090-04-39W, korkeus merenpinnasta: 105 m

Tämänhetkinen sää

Tämä raportti tehtiin 20 minuuttia sitten, kello 15.54 UTC
Tuuli 5 kn eri suunnista
Lämpötila 10°C
Kosteus 53%
Ilmanpaine 1018 hPa
Näkyvyys: 16.1 km
Muutamia pilviä 7000 ft:n korkeudessa
Muutamia pilviä 16000 ft:n korkeudessa

METAR: KJAN 171554Z VRB05KT 10SM FEW070 FEW160 10/01 A3006 RMK AO2 SLP179 T01000006

Aika: 10:14 (16:14 UTC)

Sääennuste

Tämä raportti tehtiin 4 tuntia ja 54 minuuttia sitten, kello 11.20 UTC
Ennuste voimassa 17. päivästä klo 12 UTC - 18. päivään klo 12 UTC
Tuuli 10 kn lännestä/lounaasta
Näkyvyys: 10 km
Muutamia pilviä 12000 ft:n korkeudessa

TAF: KJAN 171120Z 1712/1812 25010KT P6SM FEW120

Säähavainnot ja -ennusteet yli 4000 lentoasemalta (METAR- ja TAF-raportit).

Käytössä olevat sääasemat on merkitty karttaan keltaisilla ja punaisilla pisteillä.

Aseta hiiri pisteen päälle nähdäksesi sääaseman nimen.

Klikkaa sitten nähdäksesi säähavainnot ja -ennusteet.

Kartan vaihtaminen: klikkaa mustalla rastilla varustettuja vihreitä pisteitä, niin voit zoomata sisään; viivalla varustettua vihreää pistettä, niin voit zoomata ulos tai vihreitä nuolia, niin pääset viereisille kartoille.


METAR-TAF: